createdAt,value
2019-04-16T00:02:11.223Z,10.03
2019-04-16T00:04:56.617Z,9.37
2019-04-16T00:07:28.296Z,10.17
2019-04-16T00:10:04.344Z,10.97
2019-04-16T00:12:51.302Z,9.77
2019-04-16T00:15:19.738Z,10.07
2019-04-16T00:17:48.207Z,9.37
2019-04-16T00:20:16.731Z,9.33
2019-04-16T00:22:46.835Z,12.23
2019-04-16T00:25:15.259Z,9.23
2019-04-16T00:27:43.787Z,10.67
2019-04-16T00:30:14.026Z,11.27
2019-04-16T00:32:42.740Z,9.47
2019-04-16T00:35:15.413Z,11.90
2019-04-16T00:37:41.539Z,10.40
2019-04-16T00:40:10.123Z,9.77
2019-04-16T00:42:38.643Z,10.40
2019-04-16T00:45:07.627Z,9.13
2019-04-16T00:47:36.116Z,9.97
2019-04-16T00:50:06.417Z,10.50
2019-04-16T00:52:36.959Z,10.93
2019-04-16T00:55:07.070Z,10.07
2019-04-16T00:57:37.121Z,9.00
2019-04-16T01:00:07.411Z,10.40
2019-04-16T01:02:35.854Z,9.50
2019-04-16T01:05:06.320Z,10.13
2019-04-16T01:07:34.769Z,9.97
2019-04-16T01:10:03.532Z,10.53
2019-04-16T01:12:31.970Z,11.27
2019-04-16T01:15:01.056Z,10.13
2019-04-16T01:17:29.903Z,11.77
2019-04-16T01:19:58.343Z,11.53
2019-04-16T01:22:26.776Z,10.80
2019-04-16T01:24:55.218Z,11.77
2019-04-16T01:27:28.513Z,12.13
2019-04-16T01:29:55.459Z,12.77
2019-04-16T01:32:42.710Z,9.60
2019-04-16T01:35:18.675Z,10.00
2019-04-16T01:38:03.152Z,10.83
2019-04-16T01:40:36.388Z,11.20
2019-04-16T01:43:04.921Z,12.80
2019-04-16T01:45:33.374Z,11.83
2019-04-16T01:48:06.909Z,10.90
2019-04-16T01:50:32.061Z,10.87
2019-04-16T01:53:00.491Z,10.47
2019-04-16T01:55:28.941Z,10.43
2019-04-16T01:57:59.625Z,11.50
2019-04-16T02:00:27.556Z,12.10
2019-04-16T02:02:55.987Z,10.70
2019-04-16T02:05:24.438Z,10.40
2019-04-16T02:07:52.937Z,11.13
2019-04-16T02:10:21.477Z,9.10
2019-04-16T02:12:49.907Z,10.63
2019-04-16T02:15:21.668Z,10.03
2019-04-16T02:17:48.565Z,11.90
2019-04-16T02:20:17.091Z,11.03
2019-04-16T02:22:45.780Z,11.90
2019-04-16T02:25:19.043Z,10.47
2019-04-16T02:27:44.395Z,10.67
2019-04-16T02:30:13.373Z,11.37
2019-04-16T02:32:41.802Z,11.57
2019-04-16T02:35:10.891Z,11.30
2019-04-16T02:37:39.396Z,10.97
2019-04-16T02:40:08.125Z,11.77
2019-04-16T02:42:36.911Z,10.60
2019-04-16T02:45:06.121Z,10.80
2019-04-16T02:47:40.250Z,13.80
2019-04-16T02:50:08.079Z,11.67
2019-04-16T02:52:38.210Z,10.40
2019-04-16T02:55:24.715Z,11.03
2019-04-16T02:58:07.082Z,11.23
2019-04-16T03:00:40.214Z,11.87
2019-04-16T03:03:12.983Z,11.50
2019-04-16T03:05:43.076Z,25.43
2019-04-16T03:08:11.581Z,34.20
2019-04-16T03:10:41.827Z,20.03
2019-04-16T03:13:10.256Z,18.03
2019-04-16T03:15:49.161Z,18.47
2019-04-16T03:18:19.334Z,15.57
2019-04-16T03:20:47.893Z,14.83
2019-04-16T03:23:16.397Z,13.97
2019-04-16T03:25:45.110Z,15.63
2019-04-16T03:28:14.122Z,12.97
2019-04-16T03:30:42.960Z,16.07
2019-04-16T03:33:14.289Z,14.23
2019-04-16T03:35:41.770Z,11.53
2019-04-16T03:38:10.192Z,12.70
2019-04-16T03:40:38.672Z,13.53
2019-04-16T03:43:07.133Z,13.07
2019-04-16T03:45:37.564Z,12.60
2019-04-16T03:48:05.800Z,13.77
2019-04-16T03:50:34.270Z,14.20
2019-04-16T03:53:02.733Z,12.93
2019-04-16T03:55:31.171Z,14.63
2019-04-16T03:58:02.617Z,13.37
2019-04-16T04:00:29.791Z,14.83
2019-04-16T04:02:58.271Z,13.97
2019-04-16T04:05:26.695Z,13.90
2019-04-16T04:07:55.577Z,15.63
2019-04-16T04:10:30.695Z,13.87
2019-04-16T04:12:54.345Z,13.47
2019-04-16T04:15:26.084Z,14.63
2019-04-16T04:17:53.250Z,15.63
2019-04-16T04:20:21.747Z,14.80
2019-04-16T04:22:50.192Z,14.87
2019-04-16T04:25:18.631Z,13.77
2019-04-16T04:27:47.748Z,16.33
2019-04-16T04:30:18.480Z,15.57
2019-04-16T04:32:47.660Z,17.27
2019-04-16T04:35:20.174Z,16.00
2019-04-16T04:37:46.508Z,16.67
2019-04-16T04:40:15.885Z,18.33
2019-04-16T04:42:45.109Z,17.60
2019-04-16T04:45:13.908Z,18.33
2019-04-16T04:47:42.504Z,18.50
2019-04-16T04:50:11.615Z,18.10
2019-04-16T04:52:40.075Z,15.37
2019-04-16T04:55:08.747Z,17.50
2019-04-16T04:57:37.211Z,16.97
2019-04-16T05:00:09.534Z,16.30
2019-04-16T05:02:38.341Z,20.30
2019-04-16T05:05:24.241Z,18.17
2019-04-16T05:07:51.183Z,13.57
2019-04-16T05:10:19.626Z,16.47
2019-04-16T05:12:50.517Z,14.77
2019-04-16T05:15:18.291Z,16.40
2019-04-16T05:17:46.736Z,16.67
2019-04-16T05:20:16.262Z,15.53
2019-04-16T05:22:44.994Z,15.00
2019-04-16T05:25:13.689Z,14.33
2019-04-16T05:27:42.112Z,16.73
2019-04-16T05:30:10.892Z,17.10
2019-04-16T05:32:39.318Z,17.87
2019-04-16T05:35:10.164Z,14.90
2019-04-16T05:37:38.363Z,15.70
2019-04-16T05:40:07.550Z,15.17
2019-04-16T05:42:35.987Z,15.17
2019-04-16T05:45:07.585Z,15.47
2019-04-16T05:47:36.002Z,14.40
2019-04-16T05:50:06.483Z,15.57
2019-04-16T05:52:35.703Z,16.10
2019-04-16T05:55:22.983Z,14.27
2019-04-16T05:57:58.281Z,13.33
2019-04-16T06:00:44.515Z,13.83
2019-04-16T06:03:13.020Z,14.47
2019-04-16T06:05:41.482Z,12.87
2019-04-16T06:08:10.874Z,14.40
2019-04-16T06:10:40.162Z,13.63
2019-04-16T06:13:12.674Z,16.10
2019-04-16T06:15:42.080Z,12.57
2019-04-16T06:18:18.476Z,16.90
2019-04-16T06:20:52.947Z,10.40
2019-04-16T06:23:26.432Z,11.50
2019-04-16T06:25:59.291Z,14.77
2019-04-16T06:28:35.655Z,12.63
2019-04-16T06:31:09.914Z,12.40
2019-04-16T06:33:46.460Z,11.43
2019-04-16T06:36:32.474Z,12.20
2019-04-16T06:39:02.535Z,13.47
2019-04-16T06:41:42.048Z,12.70
2019-04-16T06:44:13.467Z,14.07
2019-04-16T06:46:46.079Z,12.30
2019-04-16T06:49:17.651Z,11.40
2019-04-16T06:51:50.751Z,12.57
2019-04-16T06:54:39.295Z,12.13
2019-04-16T06:57:27.801Z,10.20
2019-04-16T06:59:59.534Z,11.33
2019-04-16T07:03:01.346Z,13.27
2019-04-16T07:05:23.824Z,11.77
2019-04-16T07:08:02.900Z,14.47
2019-04-16T07:10:44.022Z,10.70
2019-04-16T07:13:03.165Z,12.53
2019-04-16T07:15:31.621Z,11.57
2019-04-16T07:18:02.474Z,11.20
2019-04-16T07:20:30.377Z,9.27
2019-04-16T07:22:58.954Z,12.93
2019-04-16T07:25:29.424Z,14.30
2019-04-16T07:28:01.756Z,12.53
2019-04-16T07:30:31.920Z,11.93
2019-04-16T07:33:14.572Z,10.83
2019-04-16T07:36:01.307Z,11.50
2019-04-16T07:38:31.419Z,11.17
2019-04-16T07:41:13.302Z,12.83
2019-04-16T07:44:04.406Z,12.43
2019-04-16T07:46:31.792Z,10.80
2019-04-16T07:49:01.947Z,13.30
2019-04-16T07:51:48.238Z,14.73
2019-04-16T07:54:27.319Z,12.03
2019-04-16T07:56:56.162Z,13.67
2019-04-16T07:59:24.673Z,11.53
2019-04-16T08:01:53.103Z,13.50
2019-04-16T08:04:28.703Z,15.60
2019-04-16T08:06:51.719Z,13.37
2019-04-16T08:09:20.306Z,13.07
2019-04-16T08:11:48.751Z,14.97
2019-04-16T08:14:17.229Z,13.93
2019-04-16T08:16:47.709Z,12.47
2019-04-16T08:19:16.236Z,15.57
2019-04-16T08:21:44.829Z,12.30
2019-04-16T08:24:17.348Z,12.50
2019-04-16T08:26:45.800Z,13.47
2019-04-16T08:29:14.233Z,13.03
2019-04-16T08:31:44.854Z,15.63
2019-04-16T08:34:13.549Z,15.43
2019-04-16T08:36:42.065Z,15.20
2019-04-16T08:39:12.175Z,15.23
2019-04-16T08:41:40.631Z,17.97
2019-04-16T08:44:10.302Z,14.70
2019-04-16T08:46:40.172Z,17.30
2019-04-16T08:49:09.508Z,13.40
2019-04-16T08:51:38.036Z,15.50
2019-04-16T08:54:06.549Z,12.00
2019-04-16T08:56:35.001Z,14.90
2019-04-16T08:59:08.872Z,12.73
2019-04-16T09:01:35.350Z,13.70
2019-04-16T09:04:03.928Z,12.17
2019-04-16T09:06:32.371Z,14.13
2019-04-16T09:09:12.452Z,14.70
2019-04-16T09:11:35.401Z,15.10
2019-04-16T09:14:05.589Z,13.27
2019-04-16T09:16:44.723Z,13.53
2019-04-16T09:19:17.218Z,13.43
2019-04-16T09:21:45.672Z,15.33
2019-04-16T09:24:21.776Z,13.03
2019-04-16T09:26:52.787Z,14.13
2019-04-16T09:29:40.566Z,14.57
2019-04-16T09:32:24.645Z,15.07
2019-04-16T09:35:09.863Z,16.47
2019-04-16T09:37:48.317Z,15.10
2019-04-16T09:40:34.615Z,13.80
2019-04-16T09:43:16.021Z,14.90
2019-04-16T09:45:37.293Z,14.70
2019-04-16T09:48:05.393Z,14.43
2019-04-16T09:50:33.820Z,13.07
2019-04-16T09:53:02.677Z,14.13
2019-04-16T09:55:31.178Z,15.60
2019-04-16T09:58:06.064Z,16.27
2019-04-16T10:00:36.286Z,14.57
2019-04-16T10:03:18.643Z,13.87
2019-04-16T10:05:47.162Z,15.10
2019-04-16T10:08:15.764Z,15.50
2019-04-16T10:10:44.364Z,12.70
2019-04-16T10:13:12.813Z,13.23
2019-04-16T10:15:41.400Z,13.20
2019-04-16T10:18:09.953Z,11.77
2019-04-16T10:20:40.393Z,11.77
2019-04-16T10:23:10.231Z,11.27
2019-04-16T10:25:38.695Z,12.53
2019-04-16T10:28:17.903Z,16.47
2019-04-16T10:30:48.095Z,11.63
2019-04-16T10:33:16.580Z,12.00
2019-04-16T10:35:45.012Z,13.27
2019-04-16T10:38:31.615Z,12.13
2019-04-16T10:41:10.501Z,11.90
2019-04-16T10:43:59.032Z,12.30
2019-04-16T10:46:38.027Z,12.27
2019-04-16T10:49:17.351Z,12.00
2019-04-16T10:51:50.178Z,12.93
2019-04-16T10:54:37.347Z,11.47
2019-04-16T10:57:23.386Z,14.30
2019-04-16T11:00:05.477Z,11.50
2019-04-16T11:02:41.230Z,12.63
2019-04-16T11:05:27.048Z,13.53
2019-04-16T11:07:57.164Z,14.07
2019-04-16T11:10:29.751Z,13.77
2019-04-16T11:12:58.224Z,15.30
2019-04-16T11:15:27.412Z,17.50
2019-04-16T11:17:55.922Z,17.40
2019-04-16T11:20:25.202Z,14.17
2019-04-16T11:22:53.765Z,18.00
2019-04-16T11:25:22.385Z,16.07
2019-04-16T11:27:50.917Z,14.97
2019-04-16T11:30:30.499Z,17.13
2019-04-16T11:32:59.953Z,17.27
2019-04-16T11:35:28.466Z,18.73
2019-04-16T11:37:56.904Z,19.83
2019-04-16T11:40:25.494Z,18.00
2019-04-16T11:42:53.967Z,23.47
2019-04-16T11:45:22.582Z,21.63
2019-04-16T11:47:51.049Z,18.73
2019-04-16T11:50:19.482Z,20.90
2019-04-16T11:52:47.993Z,19.80
2019-04-16T11:55:16.515Z,17.17
2019-04-16T11:57:45.058Z,15.80
2019-04-16T12:00:15.860Z,19.27
2019-04-16T12:03:02.787Z,19.17
2019-04-16T12:05:45.278Z,19.23
2019-04-16T12:08:23.954Z,18.73
2019-04-16T12:11:02.862Z,20.63
2019-04-16T12:13:42.265Z,20.23
2019-04-16T12:16:25.442Z,20.33
2019-04-16T12:19:12.461Z,22.20
2019-04-16T12:22:00.578Z,22.83
2019-04-16T12:24:46.899Z,20.73
2019-04-16T12:27:21.138Z,21.83
2019-04-16T12:30:03.387Z,20.47
2019-04-16T12:32:33.570Z,18.67
2019-04-16T12:35:09.553Z,19.37
2019-04-16T12:37:56.046Z,20.50
2019-04-16T12:40:29.554Z,19.93
2019-04-16T12:42:59.696Z,19.37
2019-04-16T12:45:38.955Z,18.47
2019-04-16T12:48:09.259Z,21.40
2019-04-16T12:50:39.463Z,20.87
2019-04-16T12:53:09.640Z,18.90
2019-04-16T12:55:56.035Z,19.93
2019-04-16T12:58:41.395Z,18.73
2019-04-16T13:01:11.581Z,14.87
2019-04-16T13:03:46.467Z,17.37
2019-04-16T13:06:16.426Z,14.97
2019-04-16T13:09:02.744Z,13.50
2019-04-16T13:11:36.230Z,16.87
2019-04-16T13:14:12.697Z,14.20
2019-04-16T13:16:57.859Z,16.20
2019-04-16T13:19:40.047Z,17.27
2019-04-16T13:22:10.121Z,19.30
2019-04-16T13:24:43.307Z,16.93
2019-04-16T13:27:16.346Z,15.37
2019-04-16T13:29:45.744Z,13.93
2019-04-16T13:32:14.176Z,16.47
2019-04-16T13:34:42.862Z,15.90
2019-04-16T13:37:11.281Z,14.13
2019-04-16T13:39:41.532Z,16.40
2019-04-16T13:42:10.094Z,15.37
2019-04-16T13:44:52.226Z,15.07
2019-04-16T13:47:20.678Z,11.40
2019-04-16T13:50:05.899Z,11.47
2019-04-16T13:52:34.599Z,11.37
2019-04-16T13:55:20.981Z,13.73
2019-04-16T13:57:59.557Z,14.37
2019-04-16T14:00:29.738Z,15.30
2019-04-16T14:02:59.964Z,16.10
2019-04-16T14:05:28.801Z,12.93
2019-04-16T14:07:57.243Z,22.57
2019-04-16T14:10:25.763Z,10.37
2019-04-16T14:12:54.203Z,9.77
2019-04-16T14:15:31.777Z,11.93
2019-04-16T14:17:59.073Z,9.07
2019-04-16T14:20:24.695Z,9.07
2019-04-16T14:22:53.550Z,9.50
2019-04-16T14:25:22.917Z,10.70
2019-04-16T14:27:55.063Z,14.03
2019-04-16T14:30:23.399Z,12.90
2019-04-16T14:32:51.841Z,10.93
2019-04-16T14:35:33.134Z,9.50
2019-04-16T14:37:54.915Z,9.70
2019-04-16T14:40:24.084Z,8.87
2019-04-16T14:42:57.382Z,10.20
2019-04-16T14:45:28.658Z,9.43
2019-04-16T14:47:57.082Z,10.23
2019-04-16T14:50:25.787Z,8.33
2019-04-16T14:52:54.595Z,9.53
2019-04-16T14:55:30.500Z,8.67
2019-04-16T14:58:16.700Z,8.57
2019-04-16T15:01:03.304Z,9.10
2019-04-16T15:03:51.189Z,10.10
2019-04-16T15:06:36.059Z,11.77
2019-04-16T15:09:23.520Z,12.47
2019-04-16T15:12:09.982Z,8.77
2019-04-16T15:14:46.219Z,9.07
2019-04-16T15:17:26.288Z,10.77
2019-04-16T15:19:59.342Z,8.77
2019-04-16T15:22:38.476Z,8.93
2019-04-16T15:25:09.594Z,8.87
2019-04-16T15:27:37.329Z,9.87
2019-04-16T15:30:12.281Z,9.10
2019-04-16T15:32:42.437Z,7.87
2019-04-16T15:35:15.356Z,7.73
2019-04-16T15:37:45.558Z,8.90
2019-04-16T15:40:31.388Z,8.00
2019-04-16T15:43:04.147Z,11.33
2019-04-16T15:45:34.249Z,10.27
2019-04-16T15:48:04.444Z,9.43
2019-04-16T15:50:46.388Z,9.50
2019-04-16T15:53:16.579Z,9.30
2019-04-16T15:55:46.645Z,10.30
2019-04-16T15:58:22.735Z,7.07
2019-04-16T16:00:52.882Z,8.67
2019-04-16T16:03:37.875Z,9.20
2019-04-16T16:06:08.140Z,13.30
2019-04-16T16:08:38.265Z,11.10
2019-04-16T16:11:24.747Z,13.33
2019-04-16T16:13:53.306Z,7.67
2019-04-16T16:16:23.363Z,7.27
2019-04-16T16:18:51.831Z,7.57
2019-04-16T16:21:20.291Z,8.03
2019-04-16T16:23:48.736Z,7.00
2019-04-16T16:26:17.206Z,8.80
2019-04-16T16:28:45.734Z,10.60
2019-04-16T16:31:14.217Z,7.17
2019-04-16T16:33:42.806Z,10.67
2019-04-16T16:36:11.393Z,6.33
2019-04-16T16:38:39.844Z,7.50
2019-04-16T16:41:08.292Z,7.67
2019-04-16T16:43:36.743Z,7.30
2019-04-16T16:46:06.837Z,5.10
2019-04-16T16:48:35.487Z,3.97
2019-04-16T16:51:04.151Z,3.00
2019-04-16T16:53:34.431Z,2.57
2019-04-16T16:56:13.618Z,2.70
2019-04-16T16:58:42.284Z,4.23
2019-04-16T17:01:33.850Z,3.43
2019-04-16T17:04:14.867Z,2.20
2019-04-16T17:06:43.535Z,2.63
2019-04-16T17:09:13.685Z,5.47
2019-04-16T17:11:43.220Z,2.07
2019-04-16T17:14:12.296Z,1.77
2019-04-16T17:16:40.806Z,3.00
2019-04-16T17:19:09.320Z,2.03
2019-04-16T17:21:37.948Z,2.07
2019-04-16T17:24:06.526Z,3.57
2019-04-16T17:26:34.979Z,5.67
2019-04-16T17:29:03.397Z,1.70
2019-04-16T17:31:35.602Z,2.60
2019-04-16T17:34:02.233Z,1.97
2019-04-16T17:36:30.962Z,2.47
2019-04-16T17:38:59.439Z,2.33
2019-04-16T17:41:29.561Z,2.23
2019-04-16T17:44:05.439Z,10.30
2019-04-16T17:46:38.037Z,5.97
2019-04-16T17:49:11.112Z,2.53
2019-04-16T17:51:57.420Z,2.43
2019-04-16T17:54:27.501Z,2.13
2019-04-16T17:56:57.594Z,2.20
2019-04-16T17:59:30.639Z,3.87
2019-04-16T18:02:16.805Z,2.10
2019-04-16T18:05:03.948Z,2.07
2019-04-16T18:07:50.500Z,2.20
2019-04-16T18:10:26.986Z,2.03
2019-04-16T18:13:07.242Z,2.73
2019-04-16T18:15:43.590Z,3.30
2019-04-16T18:18:16.842Z,2.70
2019-04-16T18:20:58.793Z,2.50
2019-04-16T18:23:39.484Z,2.60
2019-04-16T18:26:15.144Z,4.03
2019-04-16T18:28:54.267Z,3.00
2019-04-16T18:31:24.436Z,3.90
2019-04-16T18:33:54.589Z,2.97
2019-04-16T18:36:24.760Z,4.50
2019-04-16T18:39:03.752Z,3.43
2019-04-16T18:41:29.434Z,3.20
2019-04-16T18:44:14.863Z,2.20
2019-04-16T18:46:50.871Z,2.43
2019-04-16T18:49:26.515Z,4.00
2019-04-16T18:51:55.037Z,3.97
2019-04-16T18:54:23.671Z,2.67
2019-04-16T18:56:52.386Z,3.80
2019-04-16T18:59:20.981Z,2.60
2019-04-16T19:01:51.151Z,4.00
2019-04-16T19:04:19.666Z,4.13
2019-04-16T19:06:48.106Z,2.67
2019-04-16T19:09:16.691Z,2.63
2019-04-16T19:11:45.139Z,3.00
2019-04-16T19:14:14.025Z,4.40
2019-04-16T19:16:42.625Z,3.90
2019-04-16T19:19:11.166Z,3.20
2019-04-16T19:21:42.428Z,3.37
2019-04-16T19:24:09.858Z,7.13
2019-04-16T19:26:38.317Z,3.57
2019-04-16T19:29:13.115Z,5.67
2019-04-16T19:31:37.152Z,4.20
2019-04-16T19:34:09.635Z,4.77
2019-04-16T19:36:35.822Z,3.83
2019-04-16T19:39:06.954Z,4.70
2019-04-16T19:41:36.362Z,3.80
2019-04-16T19:44:07.509Z,3.80
2019-04-16T19:46:35.299Z,4.70
2019-04-16T19:49:03.968Z,3.77
2019-04-16T19:51:32.983Z,4.33
2019-04-16T19:54:01.535Z,4.60
2019-04-16T19:56:33.262Z,4.23
2019-04-16T19:59:01.193Z,4.10
2019-04-16T20:01:29.734Z,3.87
2019-04-16T20:03:58.666Z,5.60
2019-04-16T20:06:27.597Z,3.70
2019-04-16T20:08:56.126Z,3.20
2019-04-16T20:11:24.602Z,4.33
2019-04-16T20:13:53.602Z,4.20
2019-04-16T20:16:22.179Z,5.13
2019-04-16T20:18:51.567Z,4.17
2019-04-16T20:21:20.261Z,5.27
2019-04-16T20:23:48.694Z,5.13
2019-04-16T20:26:17.184Z,4.30
2019-04-16T20:28:48.629Z,4.70
2019-04-16T20:31:15.956Z,4.50
2019-04-16T20:33:44.476Z,4.03
2019-04-16T20:36:12.978Z,6.80
2019-04-16T20:38:41.429Z,9.07
2019-04-16T20:41:09.978Z,8.90
2019-04-16T20:43:38.391Z,5.03
2019-04-16T20:46:06.925Z,6.07
2019-04-16T20:48:35.477Z,5.33
2019-04-16T20:51:03.967Z,5.77
2019-04-16T20:53:32.496Z,4.30
2019-04-16T20:56:01.046Z,5.80
2019-04-16T20:58:31.565Z,5.67
2019-04-16T21:01:01.145Z,6.73
2019-04-16T21:03:31.192Z,4.50
2019-04-16T21:06:00.229Z,4.60
2019-04-16T21:08:28.794Z,6.40
2019-04-16T21:10:59.822Z,4.67
2019-04-16T21:13:27.411Z,4.57
2019-04-16T21:15:57.328Z,5.93
2019-04-16T21:18:26.043Z,4.97
2019-04-16T21:20:54.488Z,6.03
2019-04-16T21:23:22.959Z,6.10
2019-04-16T21:25:51.414Z,5.87
2019-04-16T21:28:33.418Z,4.50
2019-04-16T21:31:06.292Z,4.73
2019-04-16T21:33:45.282Z,6.40
2019-04-16T21:36:37.111Z,5.63
2019-04-16T21:39:17.472Z,6.20
2019-04-16T21:41:46.590Z,4.67
2019-04-16T21:44:15.062Z,6.43
2019-04-16T21:46:43.592Z,5.87
2019-04-16T21:49:12.040Z,4.80
2019-04-16T21:51:42.186Z,6.20
2019-04-16T21:54:10.639Z,5.23
2019-04-16T21:56:39.735Z,4.83
2019-04-16T21:59:08.937Z,4.30
2019-04-16T22:01:39.153Z,4.80
2019-04-16T22:04:14.412Z,5.33
2019-04-16T22:06:42.451Z,4.20
2019-04-16T22:09:11.071Z,3.97
2019-04-16T22:11:43.230Z,4.47
2019-04-16T22:14:09.861Z,4.33
2019-04-16T22:16:38.284Z,4.17
2019-04-16T22:19:07.005Z,4.40
2019-04-16T22:21:35.509Z,3.97
2019-04-16T22:24:04.126Z,4.50
2019-04-16T22:26:35.254Z,6.83
2019-04-16T22:29:03.232Z,4.87
2019-04-16T22:31:31.869Z,4.73
2019-04-16T22:34:00.374Z,4.53
2019-04-16T22:36:28.969Z,4.40
2019-04-16T22:38:59.239Z,4.20
2019-04-16T22:41:34.907Z,3.83
2019-04-16T22:44:21.488Z,3.50
2019-04-16T22:46:51.623Z,3.13
2019-04-16T22:49:22.453Z,3.30
2019-04-16T22:51:51.041Z,3.30
2019-04-16T22:54:20.876Z,3.20
2019-04-16T22:56:51.577Z,3.57
2019-04-16T22:59:20.019Z,3.57
2019-04-16T23:01:53.012Z,3.27
2019-04-16T23:04:22.868Z,3.83
2019-04-16T23:06:51.425Z,3.57
2019-04-16T23:09:21.207Z,3.87
2019-04-16T23:11:52.664Z,3.83
2019-04-16T23:14:20.047Z,3.80
2019-04-16T23:16:48.620Z,4.07
2019-04-16T23:19:17.510Z,4.40
2019-04-16T23:21:47.407Z,6.00
2019-04-16T23:24:16.023Z,3.70
2019-04-16T23:26:44.599Z,4.87
2019-04-16T23:29:15.665Z,4.40
2019-04-16T23:31:43.497Z,3.53
2019-04-16T23:34:12.037Z,3.57
2019-04-16T23:36:40.522Z,3.63
2019-04-16T23:39:09.223Z,3.97
2019-04-16T23:41:37.750Z,4.87
2019-04-16T23:44:22.718Z,3.90
2019-04-16T23:47:10.208Z,4.70
2019-04-16T23:49:58.143Z,3.80
2019-04-16T23:52:28.650Z,4.10
2019-04-16T23:55:01.782Z,4.83
2019-04-16T23:57:43.935Z,4.00
